createdAt,value
2019-02-18T00:02:06.067Z,81.10
2019-02-18T00:04:34.348Z,80.90
2019-02-18T00:07:02.660Z,81.90
2019-02-18T00:09:31.046Z,81.50
2019-02-18T00:11:59.404Z,82.30
2019-02-18T00:14:27.733Z,83.00
2019-02-18T00:16:56.085Z,83.10
2019-02-18T00:19:24.400Z,83.20
2019-02-18T00:21:52.678Z,83.40
2019-02-18T00:24:20.983Z,82.40
2019-02-18T00:26:49.268Z,83.00
2019-02-18T00:29:17.648Z,83.10
2019-02-18T00:31:45.956Z,82.90
2019-02-18T00:34:14.313Z,82.70
2019-02-18T00:36:42.621Z,82.30
2019-02-18T00:39:10.902Z,82.50
2019-02-18T00:41:39.213Z,83.00
2019-02-18T00:44:07.490Z,83.90
2019-02-18T00:46:35.804Z,84.50
2019-02-18T00:49:04.158Z,84.20
2019-02-18T00:51:32.470Z,83.70
2019-02-18T00:54:00.744Z,82.70
2019-02-18T00:56:29.046Z,82.70
2019-02-18T00:58:57.359Z,83.20
2019-02-18T01:01:25.635Z,82.80
2019-02-18T01:03:53.945Z,83.30
2019-02-18T01:06:22.220Z,83.60
2019-02-18T01:08:50.527Z,84.10
2019-02-18T01:11:18.836Z,83.70
2019-02-18T01:13:47.122Z,83.70
2019-02-18T01:16:15.436Z,83.60
2019-02-18T01:18:43.716Z,83.60
2019-02-18T01:21:12.021Z,83.50
2019-02-18T01:23:40.331Z,84.00
2019-02-18T01:26:08.603Z,85.30
2019-02-18T01:28:36.907Z,85.60
2019-02-18T01:31:05.262Z,85.10
2019-02-18T01:33:33.648Z,83.30
2019-02-18T01:36:01.934Z,83.50
2019-02-18T01:38:30.244Z,84.70
2019-02-18T01:40:58.556Z,85.90
2019-02-18T01:43:26.840Z,86.40
2019-02-18T01:45:55.224Z,87.10
2019-02-18T01:48:23.509Z,86.20
2019-02-18T01:50:51.831Z,85.50
2019-02-18T01:53:20.138Z,86.60
2019-02-18T01:55:48.447Z,86.50
2019-02-18T01:58:16.732Z,86.40
2019-02-18T02:00:45.040Z,86.00
2019-02-18T02:03:13.317Z,86.30
2019-02-18T02:05:41.700Z,86.60
2019-02-18T02:08:10.011Z,87.20
2019-02-18T02:10:38.389Z,88.20
2019-02-18T02:13:28.584Z,88.20
2019-02-18T02:15:57.510Z,87.70
2019-02-18T02:18:25.778Z,87.20
2019-02-18T02:20:54.091Z,86.30
2019-02-18T02:23:22.472Z,86.20
2019-02-18T02:25:50.776Z,85.70
2019-02-18T02:28:19.693Z,86.70
2019-02-18T02:30:48.127Z,85.90
2019-02-18T02:33:16.402Z,85.50
2019-02-18T02:35:44.716Z,84.70
2019-02-18T02:38:13.064Z,84.70
2019-02-18T02:40:41.457Z,84.90
2019-02-18T02:43:09.810Z,84.90
2019-02-18T02:45:38.081Z,85.50
2019-02-18T02:48:06.384Z,85.40
2019-02-18T02:50:34.655Z,86.10
2019-02-18T02:53:02.966Z,88.00
2019-02-18T02:55:31.357Z,87.50
2019-02-18T02:57:59.708Z,86.30
2019-02-18T03:00:28.015Z,86.20
2019-02-18T03:02:56.327Z,85.30
2019-02-18T03:05:24.611Z,84.70
2019-02-18T03:07:53.018Z,84.30
2019-02-18T03:10:21.349Z,85.00
2019-02-18T03:12:49.735Z,85.60
2019-02-18T03:15:18.416Z,85.90
2019-02-18T03:17:46.691Z,85.70
2019-02-18T03:20:15.014Z,85.00
2019-02-18T03:22:43.401Z,84.30
2019-02-18T03:25:21.909Z,82.80
2019-02-18T03:28:02.492Z,83.60
2019-02-18T03:30:40.127Z,83.50
2019-02-18T03:33:14.295Z,84.10
2019-02-18T03:35:42.656Z,85.30
2019-02-18T03:38:10.965Z,86.40
2019-02-18T03:40:39.348Z,87.50
2019-02-18T03:43:07.629Z,88.10
2019-02-18T03:45:35.941Z,88.30
2019-02-18T03:48:04.271Z,88.00
2019-02-18T03:50:32.714Z,87.50
2019-02-18T03:53:01.023Z,87.20
2019-02-18T03:55:29.346Z,87.20
2019-02-18T03:57:57.705Z,88.40
2019-02-18T04:00:26.057Z,88.20
2019-02-18T04:02:54.373Z,88.50
2019-02-18T04:05:22.649Z,88.60
2019-02-18T04:07:50.956Z,88.70
2019-02-18T04:10:19.262Z,88.70
2019-02-18T04:12:47.583Z,88.90
2019-02-18T04:15:17.285Z,89.50
2019-02-18T04:17:45.638Z,90.10
2019-02-18T04:20:13.952Z,90.40
2019-02-18T04:22:42.333Z,90.40
2019-02-18T04:25:10.715Z,90.30
2019-02-18T04:27:38.999Z,90.30
2019-02-18T04:30:10.032Z,90.10
2019-02-18T04:32:38.298Z,89.90
2019-02-18T04:35:08.157Z,89.60
2019-02-18T04:37:36.820Z,90.20
2019-02-18T04:40:08.221Z,89.30
2019-02-18T04:42:36.675Z,88.90
2019-02-18T04:45:07.764Z,88.60
2019-02-18T04:47:36.071Z,87.70
2019-02-18T04:50:05.764Z,87.50
2019-02-18T04:52:34.148Z,87.50
2019-02-18T04:55:02.532Z,88.00
2019-02-18T04:57:31.420Z,88.30
2019-02-18T05:00:00.344Z,88.50
2019-02-18T05:02:28.779Z,88.90
2019-02-18T05:04:57.090Z,89.20
2019-02-18T05:07:25.401Z,89.20
2019-02-18T05:09:53.807Z,89.30
2019-02-18T05:12:22.171Z,89.60
2019-02-18T05:14:50.518Z,89.70
2019-02-18T05:17:18.809Z,89.90
2019-02-18T05:19:47.187Z,90.00
2019-02-18T05:22:15.576Z,90.00
2019-02-18T05:24:44.007Z,90.00
2019-02-18T05:27:12.406Z,90.10
2019-02-18T05:29:40.745Z,90.20
2019-02-18T05:32:09.056Z,90.10
2019-02-18T05:34:37.372Z,90.00
2019-02-18T05:37:05.773Z,89.80
2019-02-18T05:39:34.135Z,89.70
2019-02-18T05:42:02.414Z,89.70
2019-02-18T05:44:30.794Z,89.50
2019-02-18T05:46:59.144Z,89.20
2019-02-18T05:49:27.458Z,88.90
2019-02-18T05:51:55.814Z,89.00
2019-02-18T05:54:24.216Z,89.10
2019-02-18T05:56:52.561Z,89.10
2019-02-18T05:59:20.871Z,89.30
2019-02-18T06:01:49.164Z,89.00
2019-02-18T06:04:17.548Z,89.10
2019-02-18T06:06:45.901Z,90.00
2019-02-18T06:09:14.291Z,89.20
2019-02-18T06:11:42.612Z,89.30
2019-02-18T06:14:10.885Z,89.50
2019-02-18T06:16:39.228Z,89.60
2019-02-18T06:19:07.590Z,89.80
2019-02-18T06:21:35.983Z,89.90
2019-02-18T06:24:04.344Z,90.20
2019-02-18T06:26:32.740Z,90.40
2019-02-18T06:29:01.025Z,90.70
2019-02-18T06:31:29.433Z,90.80
2019-02-18T06:33:57.712Z,90.90
2019-02-18T06:36:26.063Z,90.80
2019-02-18T06:38:54.456Z,91.10
2019-02-18T06:41:22.812Z,91.20
2019-02-18T06:43:51.127Z,91.20
2019-02-18T06:46:24.010Z,91.30
2019-02-18T06:48:54.219Z,91.50
2019-02-18T06:51:22.558Z,91.40
2019-02-18T06:53:50.861Z,91.30
2019-02-18T06:56:20.795Z,91.50
2019-02-18T06:58:50.831Z,91.60
2019-02-18T07:01:23.634Z,91.70
2019-02-18T07:04:02.688Z,91.60
2019-02-18T07:06:35.450Z,91.50
2019-02-18T07:09:08.635Z,91.30
2019-02-18T07:11:38.781Z,90.90
2019-02-18T07:14:07.139Z,90.60
2019-02-18T07:16:35.447Z,90.20
2019-02-18T07:19:03.781Z,89.70
2019-02-18T07:21:32.132Z,88.60
2019-02-18T07:24:00.425Z,87.70
2019-02-18T07:26:28.740Z,86.50
2019-02-18T07:28:57.095Z,86.50
2019-02-18T07:31:25.451Z,86.10
2019-02-18T07:33:53.834Z,85.60
2019-02-18T07:36:22.200Z,85.30
2019-02-18T07:38:50.503Z,84.80
2019-02-18T07:41:18.782Z,84.10
2019-02-18T07:43:47.173Z,83.50
2019-02-18T07:46:15.504Z,82.90
2019-02-18T07:48:43.789Z,83.10
2019-02-18T07:51:12.143Z,82.10
2019-02-18T07:53:41.380Z,81.50
2019-02-18T07:56:09.707Z,81.20
2019-02-18T07:58:38.024Z,80.30
2019-02-18T08:01:06.337Z,79.30
2019-02-18T08:03:34.655Z,79.10
2019-02-18T08:06:02.964Z,79.70
2019-02-18T08:08:31.276Z,79.90
2019-02-18T08:10:59.852Z,79.70
2019-02-18T08:13:28.308Z,79.60
2019-02-18T08:15:56.614Z,78.80
2019-02-18T08:18:24.968Z,78.20
2019-02-18T08:20:53.274Z,78.70
2019-02-18T08:23:21.656Z,78.70
2019-02-18T08:25:49.941Z,78.00
2019-02-18T08:28:18.328Z,78.60
2019-02-18T08:30:46.639Z,77.90
2019-02-18T08:33:15.011Z,78.80
2019-02-18T08:35:43.718Z,78.60
2019-02-18T08:38:12.060Z,78.00
2019-02-18T08:40:40.373Z,77.20
2019-02-18T08:43:08.732Z,76.60
2019-02-18T08:45:37.115Z,77.20
2019-02-18T08:48:05.391Z,76.50
2019-02-18T08:50:33.699Z,76.60
2019-02-18T08:53:02.055Z,76.30
2019-02-18T08:55:30.363Z,75.60
2019-02-18T08:57:58.680Z,74.70
2019-02-18T09:00:26.985Z,74.70
2019-02-18T09:02:55.291Z,74.40
2019-02-18T09:05:23.668Z,72.90
2019-02-18T09:07:52.069Z,72.40
2019-02-18T09:10:20.368Z,72.60
2019-02-18T09:12:49.123Z,73.30
2019-02-18T09:15:17.408Z,72.60
2019-02-18T09:17:47.320Z,72.30
2019-02-18T09:20:15.632Z,71.70
2019-02-18T09:22:54.333Z,71.50
2019-02-18T09:25:27.095Z,70.90
2019-02-18T09:27:55.398Z,71.00
2019-02-18T09:30:25.396Z,70.70
2019-02-18T09:32:53.768Z,70.10
2019-02-18T09:35:22.308Z,70.20
2019-02-18T09:37:50.608Z,70.80
2019-02-18T09:40:18.995Z,70.00
2019-02-18T09:42:47.418Z,69.50
2019-02-18T09:45:15.728Z,68.10
2019-02-18T09:47:44.092Z,68.20
2019-02-18T09:50:12.476Z,67.60
2019-02-18T09:52:40.831Z,67.70
2019-02-18T09:55:10.165Z,67.50
2019-02-18T09:57:38.523Z,67.00
2019-02-18T10:00:09.481Z,65.80
2019-02-18T10:02:37.864Z,65.90
2019-02-18T10:05:07.327Z,66.30
2019-02-18T10:07:35.648Z,65.30
2019-02-18T10:10:05.908Z,64.20
2019-02-18T10:12:34.308Z,63.40
2019-02-18T10:15:02.594Z,62.20
2019-02-18T10:17:30.932Z,61.10
2019-02-18T10:19:59.216Z,60.00
2019-02-18T10:22:27.504Z,59.90
2019-02-18T10:24:55.826Z,57.50
2019-02-18T10:27:24.144Z,56.80
2019-02-18T10:29:52.539Z,57.00
2019-02-18T10:32:20.919Z,56.30
2019-02-18T10:34:49.239Z,57.20
2019-02-18T10:37:17.544Z,57.30
2019-02-18T10:39:45.899Z,57.10
2019-02-18T10:42:14.291Z,57.70
2019-02-18T10:44:42.585Z,56.70
2019-02-18T10:47:10.977Z,56.10
2019-02-18T10:49:39.449Z,55.50
2019-02-18T10:52:07.863Z,55.40
2019-02-18T10:54:36.211Z,53.60
2019-02-18T10:57:04.608Z,53.30
2019-02-18T10:59:32.991Z,53.70
2019-02-18T11:02:01.375Z,53.20
2019-02-18T11:04:30.075Z,52.70
2019-02-18T11:06:58.424Z,53.00
2019-02-18T11:09:26.811Z,53.20
2019-02-18T11:11:55.096Z,53.40
2019-02-18T11:14:23.390Z,51.80
2019-02-18T11:16:51.783Z,51.00
2019-02-18T11:19:20.137Z,51.00
2019-02-18T11:21:48.524Z,50.90
2019-02-18T11:24:16.884Z,51.20
2019-02-18T11:26:45.255Z,51.10
2019-02-18T11:29:13.836Z,52.50
2019-02-18T11:31:42.239Z,51.70
2019-02-18T11:34:10.586Z,51.40
2019-02-18T11:36:38.984Z,51.20
2019-02-18T11:39:10.384Z,50.90
2019-02-18T11:41:38.730Z,50.40
2019-02-18T11:44:07.083Z,49.90
2019-02-18T11:46:35.475Z,50.20
2019-02-18T11:49:03.768Z,50.10
2019-02-18T11:51:32.357Z,49.70
2019-02-18T11:54:00.711Z,49.50
2019-02-18T11:56:29.139Z,48.60
2019-02-18T11:58:57.419Z,48.20
2019-02-18T12:01:28.273Z,48.70
2019-02-18T12:03:55.885Z,48.20
2019-02-18T12:06:24.322Z,47.10
2019-02-18T12:08:52.600Z,47.80
2019-02-18T12:11:21.013Z,47.00
2019-02-18T12:13:49.813Z,47.20
2019-02-18T12:16:18.186Z,47.30
2019-02-18T12:18:46.552Z,45.70
2019-02-18T12:21:14.933Z,45.50
2019-02-18T12:23:43.348Z,42.90
2019-02-18T12:26:11.711Z,43.60
2019-02-18T12:28:40.106Z,44.00
2019-02-18T12:31:08.782Z,44.10
2019-02-18T12:33:37.203Z,44.10
2019-02-18T12:36:05.577Z,44.40
2019-02-18T12:38:33.947Z,45.60
2019-02-18T12:41:03.968Z,45.90
2019-02-18T12:43:32.383Z,45.90
2019-02-18T12:46:01.169Z,45.80
2019-02-18T12:48:29.530Z,45.00
2019-02-18T12:50:57.888Z,45.20
2019-02-18T12:53:26.276Z,44.70
2019-02-18T12:55:56.935Z,45.50
2019-02-18T12:58:24.999Z,45.20
2019-02-18T13:00:53.358Z,45.80
2019-02-18T13:03:22.046Z,45.40
2019-02-18T13:05:50.413Z,45.70
2019-02-18T13:08:18.797Z,46.50
2019-02-18T13:10:47.186Z,46.30
2019-02-18T13:13:15.537Z,46.30
2019-02-18T13:15:43.927Z,46.60
2019-02-18T13:18:12.288Z,42.60
2019-02-18T13:20:40.683Z,42.50
2019-02-18T13:23:09.462Z,42.70
2019-02-18T13:25:37.859Z,42.90
2019-02-18T13:28:08.590Z,42.90
2019-02-18T13:30:36.262Z,43.80
2019-02-18T13:33:04.655Z,44.90
2019-02-18T13:35:33.048Z,44.80
2019-02-18T13:38:01.558Z,45.30
2019-02-18T13:40:30.084Z,44.60
2019-02-18T13:42:58.481Z,44.30
2019-02-18T13:45:26.835Z,43.20
2019-02-18T13:47:55.239Z,42.60
2019-02-18T13:50:23.641Z,42.70
2019-02-18T13:52:51.999Z,42.20
2019-02-18T13:55:20.787Z,42.80
2019-02-18T13:57:49.158Z,43.30
2019-02-18T14:00:20.463Z,44.80
2019-02-18T14:02:49.945Z,44.90
2019-02-18T14:05:20.036Z,45.10
2019-02-18T14:07:48.480Z,46.20
2019-02-18T14:10:17.218Z,46.90
2019-02-18T14:12:45.571Z,46.60
2019-02-18T14:15:14.465Z,46.70
2019-02-18T14:17:42.863Z,46.40
2019-02-18T14:20:14.163Z,45.50
2019-02-18T14:22:42.656Z,44.90
2019-02-18T14:25:12.385Z,44.30
2019-02-18T14:27:40.790Z,43.10
2019-02-18T14:30:12.393Z,43.40
2019-02-18T14:32:40.755Z,43.80
2019-02-18T14:35:09.183Z,44.20
2019-02-18T14:37:37.575Z,44.40
2019-02-18T14:40:07.348Z,44.50
2019-02-18T14:42:35.749Z,43.90
2019-02-18T14:45:04.996Z,43.80
2019-02-18T14:47:33.352Z,43.60
2019-02-18T14:50:01.739Z,44.00
2019-02-18T14:52:30.512Z,44.30
2019-02-18T14:54:58.869Z,44.90
2019-02-18T14:57:27.239Z,44.10
2019-02-18T14:59:55.631Z,44.20
2019-02-18T15:02:24.020Z,44.10
2019-02-18T15:04:59.696Z,44.40
2019-02-18T15:07:28.060Z,44.50
2019-02-18T15:09:56.464Z,44.90
2019-02-18T15:12:32.728Z,43.30
2019-02-18T15:14:54.945Z,43.80
2019-02-18T15:17:23.308Z,44.20
2019-02-18T15:19:51.699Z,44.20
2019-02-18T15:22:20.121Z,44.30
2019-02-18T15:24:48.505Z,44.20
2019-02-18T15:27:17.172Z,44.40
2019-02-18T15:29:45.530Z,44.70
2019-02-18T15:32:13.924Z,46.80
2019-02-18T15:34:42.321Z,46.80
2019-02-18T15:37:10.740Z,47.20
2019-02-18T15:39:39.047Z,47.40
2019-02-18T15:42:07.607Z,47.10
2019-02-18T15:44:36.020Z,47.10
2019-02-18T15:47:04.417Z,47.20
2019-02-18T15:49:32.799Z,47.20
2019-02-18T15:52:01.190Z,47.00
2019-02-18T15:54:29.580Z,47.20
2019-02-18T15:56:57.976Z,47.60
2019-02-18T15:59:26.376Z,47.70
2019-02-18T16:01:54.743Z,47.90
2019-02-18T16:04:23.131Z,48.90
2019-02-18T16:06:51.495Z,48.20
2019-02-18T16:09:19.825Z,49.00
2019-02-18T16:11:48.206Z,48.70
2019-02-18T16:14:17.001Z,49.30
2019-02-18T16:16:45.382Z,49.50
2019-02-18T16:19:13.735Z,50.50
2019-02-18T16:21:42.122Z,51.30
2019-02-18T16:24:19.671Z,51.70
2019-02-18T16:26:40.555Z,52.40
2019-02-18T16:29:08.938Z,53.20
2019-02-18T16:31:37.318Z,53.80
2019-02-18T16:34:06.008Z,54.40
2019-02-18T16:36:34.367Z,55.10
2019-02-18T16:39:03.235Z,55.20
2019-02-18T16:41:31.918Z,55.80
2019-02-18T16:44:00.259Z,56.20
2019-02-18T16:46:31.480Z,56.60
2019-02-18T16:49:00.128Z,57.00
2019-02-18T16:51:28.499Z,57.50
2019-02-18T16:53:57.505Z,57.60
2019-02-18T16:56:25.859Z,57.80
2019-02-18T16:58:54.225Z,58.10
2019-02-18T17:01:22.625Z,58.90
2019-02-18T17:03:50.975Z,59.80
2019-02-18T17:06:19.335Z,60.90
2019-02-18T17:08:47.726Z,62.00
2019-02-18T17:11:16.115Z,62.80
2019-02-18T17:13:44.484Z,64.00
2019-02-18T17:16:13.372Z,64.80
2019-02-18T17:18:41.736Z,65.50
2019-02-18T17:21:10.121Z,65.90
2019-02-18T17:23:38.524Z,66.60
2019-02-18T17:26:06.882Z,66.80
2019-02-18T17:28:35.248Z,67.70
2019-02-18T17:31:03.649Z,68.50
2019-02-18T17:33:32.413Z,68.80
2019-02-18T17:36:00.806Z,68.40
2019-02-18T17:38:29.180Z,68.00
2019-02-18T17:40:57.538Z,68.00
2019-02-18T17:43:25.939Z,67.60
2019-02-18T17:45:54.296Z,67.40
2019-02-18T17:48:22.651Z,66.70
2019-02-18T17:50:51.039Z,66.80
2019-02-18T17:53:19.410Z,66.90
2019-02-18T17:55:47.772Z,65.80
2019-02-18T17:58:16.162Z,64.60
2019-02-18T18:00:46.154Z,64.40
2019-02-18T18:03:14.628Z,64.30
2019-02-18T18:05:44.629Z,64.00
2019-02-18T18:08:13.077Z,64.00
2019-02-18T18:10:41.466Z,63.80
2019-02-18T18:13:09.823Z,63.80
2019-02-18T18:15:38.223Z,64.20
2019-02-18T18:18:06.634Z,64.70
2019-02-18T18:20:35.291Z,66.00
2019-02-18T18:23:03.679Z,65.00
2019-02-18T18:25:32.076Z,65.30
2019-02-18T18:28:00.484Z,65.30
2019-02-18T18:30:28.879Z,65.10
2019-02-18T18:32:57.264Z,64.90
2019-02-18T18:35:25.628Z,65.30
2019-02-18T18:37:54.324Z,65.20
2019-02-18T18:40:22.689Z,65.20
2019-02-18T18:42:51.079Z,65.10
2019-02-18T18:45:19.983Z,65.40
2019-02-18T18:47:48.378Z,65.50
2019-02-18T18:50:23.274Z,65.70
2019-02-18T18:52:51.664Z,65.80
2019-02-18T18:55:20.070Z,66.40
2019-02-18T18:57:48.420Z,66.70
2019-02-18T19:00:23.763Z,66.30
2019-02-18T19:02:52.061Z,67.00
2019-02-18T19:05:20.746Z,66.30
2019-02-18T19:07:49.038Z,66.20
2019-02-18T19:10:17.445Z,65.80
2019-02-18T19:12:45.800Z,65.70
2019-02-18T19:15:20.016Z,65.30
2019-02-18T19:17:48.408Z,65.20
2019-02-18T19:20:16.807Z,65.00
2019-02-18T19:22:45.336Z,64.70
2019-02-18T19:25:13.691Z,64.60
2019-02-18T19:27:42.077Z,64.50
2019-02-18T19:30:13.692Z,64.30
2019-02-18T19:32:42.003Z,64.30
2019-02-18T19:35:10.365Z,64.20
2019-02-18T19:37:38.683Z,64.50
2019-02-18T19:40:10.046Z,64.90
2019-02-18T19:42:38.399Z,66.00
2019-02-18T19:45:09.959Z,67.00
2019-02-18T19:47:38.511Z,67.30
2019-02-18T19:50:07.740Z,67.70
2019-02-18T19:52:36.115Z,68.50
2019-02-18T19:55:07.630Z,68.00
2019-02-18T19:57:35.972Z,67.60
2019-02-18T20:00:06.612Z,66.90
2019-02-18T20:02:42.321Z,66.00
2019-02-18T20:05:12.481Z,66.90
2019-02-18T20:07:40.917Z,67.40
2019-02-18T20:10:11.118Z,67.40
2019-02-18T20:12:39.621Z,67.40
2019-02-18T20:15:13.117Z,67.50
2019-02-18T20:17:41.540Z,67.40
2019-02-18T20:20:17.128Z,66.80
2019-02-18T20:22:45.900Z,65.80
2019-02-18T20:25:14.287Z,64.80
2019-02-18T20:27:42.661Z,63.20
2019-02-18T20:30:13.362Z,61.90
2019-02-18T20:32:41.708Z,61.40
2019-02-18T20:35:10.942Z,60.70
2019-02-18T20:37:39.307Z,63.60
2019-02-18T20:40:09.737Z,65.90
2019-02-18T20:42:38.522Z,66.30
2019-02-18T20:45:11.810Z,66.10
2019-02-18T20:47:40.202Z,67.30
2019-02-18T20:50:10.696Z,68.10
2019-02-18T20:52:40.914Z,68.30
2019-02-18T20:55:13.746Z,68.20
2019-02-18T20:57:42.158Z,66.00
2019-02-18T21:00:19.395Z,66.40
2019-02-18T21:02:47.760Z,66.10
2019-02-18T21:05:16.144Z,66.90
2019-02-18T21:07:44.535Z,67.70
2019-02-18T21:10:18.659Z,68.10
2019-02-18T21:12:49.974Z,68.30
2019-02-18T21:15:18.378Z,68.90
2019-02-18T21:17:48.539Z,69.40
2019-02-18T21:20:16.901Z,69.40
2019-02-18T21:22:49.011Z,69.50
2019-02-18T21:25:17.412Z,69.30
2019-02-18T21:27:46.881Z,67.50
2019-02-18T21:30:18.335Z,67.60
2019-02-18T21:32:46.790Z,65.30
2019-02-18T21:35:18.718Z,62.80
2019-02-18T21:37:47.024Z,61.10
2019-02-18T21:40:15.407Z,60.00
2019-02-18T21:42:45.433Z,59.50
2019-02-18T21:45:17.036Z,58.80
2019-02-18T21:47:45.416Z,58.40
2019-02-18T21:50:13.860Z,58.30
2019-02-18T21:52:42.269Z,58.40
2019-02-18T21:55:11.881Z,58.40
2019-02-18T21:57:40.238Z,58.30
2019-02-18T22:00:20.464Z,58.20
2019-02-18T22:02:50.539Z,58.20
2019-02-18T22:05:20.818Z,58.30
2019-02-18T22:07:50.456Z,58.60
2019-02-18T22:10:18.878Z,59.00
2019-02-18T22:12:47.277Z,59.20
2019-02-18T22:15:15.682Z,59.40
2019-02-18T22:17:44.181Z,59.50
2019-02-18T22:20:13.896Z,59.80
2019-02-18T22:22:44.065Z,60.10
2019-02-18T22:25:14.522Z,60.20
2019-02-18T22:27:44.970Z,60.50
2019-02-18T22:30:15.436Z,60.50
2019-02-18T22:32:43.815Z,60.90
2019-02-18T22:35:12.219Z,61.00
2019-02-18T22:37:40.568Z,60.90
2019-02-18T22:40:12.841Z,61.10
2019-02-18T22:42:41.187Z,61.20
2019-02-18T22:45:10.924Z,61.00
2019-02-18T22:47:39.278Z,61.10
2019-02-18T22:50:09.779Z,61.20
2019-02-18T22:52:38.162Z,61.40
2019-02-18T22:55:07.295Z,61.60
2019-02-18T22:57:35.640Z,61.90
2019-02-18T23:00:06.265Z,61.80
2019-02-18T23:02:34.645Z,62.00
2019-02-18T23:05:03.007Z,62.20
2019-02-18T23:07:31.701Z,62.50
2019-02-18T23:10:00.481Z,62.60
2019-02-18T23:12:28.798Z,62.40
2019-02-18T23:14:57.154Z,62.70
2019-02-18T23:17:25.543Z,63.00
2019-02-18T23:19:53.888Z,63.30
2019-02-18T23:22:22.202Z,63.30
2019-02-18T23:24:50.905Z,63.50
2019-02-18T23:27:19.250Z,63.70
2019-02-18T23:29:47.632Z,63.90
2019-02-18T23:32:16.022Z,64.20
2019-02-18T23:34:44.416Z,64.10
2019-02-18T23:37:12.760Z,64.20
2019-02-18T23:39:41.103Z,64.30
2019-02-18T23:42:09.454Z,64.40
2019-02-18T23:44:37.845Z,64.20
2019-02-18T23:47:06.128Z,64.40
2019-02-18T23:49:34.452Z,64.70
2019-02-18T23:52:02.824Z,64.90
2019-02-18T23:54:31.107Z,64.80
2019-02-18T23:56:59.431Z,64.60
2019-02-18T23:59:27.709Z,64.90
